createdAt,value
2023-04-08T00:01:11.310Z,67.45
2023-04-08T00:03:38.568Z,61.47
2023-04-08T00:06:07.602Z,53.48
2023-04-08T00:08:36.381Z,50.81
2023-04-08T00:11:03.090Z,51.70
2023-04-08T00:13:29.884Z,53.29
2023-04-08T00:15:56.371Z,54.84
2023-04-08T00:18:22.797Z,55.02
2023-04-08T00:20:50.454Z,56.09
2023-04-08T00:23:17.743Z,57.72
2023-04-08T00:25:45.099Z,58.47
2023-04-08T00:28:13.939Z,59.27
2023-04-08T00:30:41.209Z,60.13
2023-04-08T00:33:08.235Z,60.99
2023-04-08T00:35:34.930Z,66.05
2023-04-08T00:38:03.008Z,73.26
2023-04-08T00:40:29.748Z,66.78
2023-04-08T00:42:57.865Z,58.36
2023-04-08T00:45:27.894Z,50.48
2023-04-08T00:47:56.041Z,50.62
2023-04-08T00:50:22.791Z,53.07
2023-04-08T00:52:52.610Z,54.70
2023-04-08T00:55:20.010Z,55.60
2023-04-08T00:57:48.027Z,56.36
2023-04-08T01:00:16.353Z,57.24
2023-04-08T01:03:12.009Z,58.29
2023-04-08T01:06:02.994Z,57.92
2023-04-08T01:08:32.448Z,60.13
2023-04-08T01:11:02.630Z,60.11
2023-04-08T01:13:36.852Z,67.03
2023-04-08T01:16:03.886Z,71.74
2023-04-08T01:18:35.945Z,62.86
2023-04-08T01:21:04.837Z,57.31
2023-04-08T01:23:50.961Z,51.13
2023-04-08T01:26:25.057Z,51.80
2023-04-08T01:29:01.164Z,54.22
2023-04-08T01:31:29.510Z,56.80
2023-04-08T01:34:01.064Z,56.92
2023-04-08T01:36:31.958Z,57.52
2023-04-08T01:39:02.284Z,57.95
2023-04-08T01:41:31.354Z,58.87
2023-04-08T01:44:03.269Z,59.14
2023-04-08T01:46:32.031Z,59.93
2023-04-08T01:49:00.411Z,65.77
2023-04-08T01:51:32.010Z,67.20
2023-04-08T01:53:59.095Z,67.25
2023-04-08T01:56:30.149Z,58.59
2023-04-08T01:59:05.552Z,50.63
2023-04-08T02:01:34.980Z,51.44
2023-04-08T02:04:03.779Z,52.62
2023-04-08T02:06:31.426Z,54.11
2023-04-08T02:09:03.360Z,55.12
2023-04-08T02:11:31.354Z,57.62
2023-04-08T02:14:01.171Z,59.60
2023-04-08T02:16:45.478Z,61.52
2023-04-08T02:19:31.489Z,70.55
2023-04-08T02:22:17.977Z,62.13
2023-04-08T02:24:47.181Z,53.61
2023-04-08T02:27:15.158Z,52.32
2023-04-08T02:29:42.662Z,53.13
2023-04-08T02:32:12.527Z,53.74
2023-04-08T02:34:41.962Z,55.72
2023-04-08T02:37:10.087Z,56.21
2023-04-08T02:39:36.781Z,57.10
2023-04-08T02:42:05.270Z,57.69
2023-04-08T02:44:32.180Z,59.99
2023-04-08T02:46:58.648Z,63.02
2023-04-08T02:49:26.192Z,72.74
2023-04-08T02:51:55.362Z,66.45
2023-04-08T02:54:24.357Z,60.87
2023-04-08T02:56:50.802Z,52.18
2023-04-08T02:59:17.553Z,53.09
2023-04-08T03:01:44.786Z,56.66
2023-04-08T03:04:11.418Z,57.02
2023-04-08T03:06:42.991Z,61.07
2023-04-08T03:09:15.087Z,63.00
2023-04-08T03:11:47.062Z,64.80
2023-04-08T03:14:13.898Z,64.08
2023-04-08T03:16:43.648Z,53.93
2023-04-08T03:19:10.532Z,51.05
2023-04-08T03:21:37.036Z,52.24
2023-04-08T03:24:05.671Z,53.51
2023-04-08T03:26:32.390Z,54.60
2023-04-08T03:29:00.079Z,56.14
2023-04-08T03:31:26.998Z,57.12
2023-04-08T03:33:53.994Z,58.21
2023-04-08T03:36:21.892Z,59.76
2023-04-08T03:38:48.888Z,59.53
2023-04-08T03:41:16.031Z,60.02
2023-04-08T03:43:42.767Z,60.30
2023-04-08T03:46:10.595Z,63.78
2023-04-08T03:48:38.309Z,70.82
2023-04-08T03:51:04.744Z,67.17
2023-04-08T03:53:35.871Z,57.79
2023-04-08T03:56:04.166Z,53.07
2023-04-08T03:58:33.425Z,54.64
2023-04-08T04:01:00.155Z,57.29
2023-04-08T04:03:26.716Z,59.40
2023-04-08T04:05:55.656Z,62.38
2023-04-08T04:08:22.711Z,65.66
2023-04-08T04:10:51.564Z,64.38
2023-04-08T04:13:19.753Z,59.39
2023-04-08T04:15:48.686Z,51.77
2023-04-08T04:18:15.801Z,51.09
2023-04-08T04:20:43.737Z,52.88
2023-04-08T04:23:11.703Z,54.71
2023-04-08T04:25:41.876Z,56.36
2023-04-08T04:28:09.772Z,57.84
2023-04-08T04:30:40.223Z,58.84
2023-04-08T04:33:07.215Z,59.71
2023-04-08T04:35:34.735Z,67.12
2023-04-08T04:38:01.573Z,68.67
2023-04-08T04:40:28.083Z,64.18
2023-04-08T04:42:56.793Z,54.79
2023-04-08T04:45:23.586Z,51.33
2023-04-08T04:47:50.040Z,52.02
2023-04-08T04:50:18.059Z,55.75
2023-04-08T04:52:44.995Z,57.47
2023-04-08T04:55:12.813Z,60.92
2023-04-08T04:57:39.312Z,65.02
2023-04-08T05:00:10.628Z,69.19
2023-04-08T05:02:37.663Z,63.92
2023-04-08T05:05:07.481Z,54.85
2023-04-08T05:07:38.743Z,50.82
2023-04-08T05:10:07.152Z,52.30
2023-04-08T05:12:34.539Z,54.51
2023-04-08T05:15:02.722Z,55.87
2023-04-08T05:17:30.734Z,57.41
2023-04-08T05:19:57.231Z,58.72
2023-04-08T05:22:23.771Z,59.44
2023-04-08T05:24:50.403Z,64.16
2023-04-08T05:27:18.731Z,67.22
2023-04-08T05:29:45.331Z,62.93
2023-04-08T05:32:11.736Z,53.11
2023-04-08T05:34:38.237Z,49.68
2023-04-08T05:37:06.395Z,52.96
2023-04-08T05:39:32.835Z,56.06
2023-04-08T05:41:59.835Z,57.63
2023-04-08T05:44:29.113Z,58.86
2023-04-08T05:46:57.044Z,60.61
2023-04-08T05:49:24.783Z,61.17
2023-04-08T05:51:52.794Z,61.95
2023-04-08T05:54:23.581Z,66.74
2023-04-08T05:56:50.210Z,70.22
2023-04-08T05:59:16.720Z,58.22
2023-04-08T06:01:43.170Z,52.78
2023-04-08T06:04:09.856Z,53.13
2023-04-08T06:06:39.978Z,55.82
2023-04-08T06:09:09.465Z,58.09
2023-04-08T06:11:35.944Z,60.43
2023-04-08T06:14:03.115Z,60.81
2023-04-08T06:16:31.088Z,65.69
2023-04-08T06:19:00.108Z,64.05
2023-04-08T06:21:27.105Z,57.43
2023-04-08T06:23:53.602Z,52.93
2023-04-08T06:26:20.121Z,54.55
2023-04-08T06:28:47.117Z,57.00
2023-04-08T06:31:15.089Z,58.22
2023-04-08T06:33:42.197Z,60.37
2023-04-08T06:36:09.238Z,62.03
2023-04-08T06:38:35.935Z,64.31
2023-04-08T06:41:05.327Z,58.60
2023-04-08T06:43:34.810Z,59.60
2023-04-08T06:46:02.827Z,61.77
2023-04-08T06:48:32.310Z,62.51
2023-04-08T06:51:02.493Z,59.79
2023-04-08T06:53:32.624Z,57.50
2023-04-08T06:56:04.213Z,60.45
2023-04-08T06:58:32.086Z,62.85
2023-04-08T07:01:02.641Z,61.70
2023-04-08T07:03:30.284Z,57.26
2023-04-08T07:05:57.076Z,57.70
2023-04-08T07:08:24.395Z,60.18
2023-04-08T07:10:53.396Z,61.52
2023-04-08T07:13:20.677Z,62.88
2023-04-08T07:15:47.234Z,60.39
2023-04-08T07:18:14.258Z,55.84
2023-04-08T07:20:42.368Z,56.04
2023-04-08T07:23:09.117Z,57.46
2023-04-08T07:25:35.813Z,59.37
2023-04-08T07:28:02.548Z,59.78
2023-04-08T07:30:29.021Z,60.85
2023-04-08T07:32:59.233Z,61.42
2023-04-08T07:35:29.625Z,61.90
2023-04-08T07:37:57.432Z,62.03
2023-04-08T07:40:26.006Z,62.33
2023-04-08T07:42:52.505Z,62.01
2023-04-08T07:45:20.206Z,58.70
2023-04-08T07:47:46.782Z,54.80
2023-04-08T07:50:14.028Z,55.32
2023-04-08T07:52:40.531Z,56.85
2023-04-08T07:55:08.153Z,57.32
2023-04-08T07:57:37.644Z,58.03
2023-04-08T08:00:07.350Z,58.50
2023-04-08T08:05:32.244Z,59.15
2023-04-08T08:08:03.193Z,59.52
2023-04-08T08:10:29.632Z,59.47
2023-04-08T08:12:56.036Z,59.14
2023-04-08T08:15:22.859Z,59.36
2023-04-08T08:17:49.827Z,59.10
2023-04-08T08:20:19.424Z,58.74
2023-04-08T08:22:56.634Z,57.97
2023-04-08T08:25:31.650Z,58.57
2023-04-08T08:27:58.510Z,58.71
2023-04-08T08:30:27.739Z,58.52
2023-04-08T08:32:55.959Z,58.27
2023-04-08T08:35:24.183Z,57.84
2023-04-08T08:37:52.238Z,57.70
2023-04-08T08:40:20.015Z,57.44
2023-04-08T08:42:54.671Z,57.05
2023-04-08T08:45:24.677Z,56.73
2023-04-08T08:47:58.061Z,56.42
2023-04-08T08:50:25.881Z,55.80
2023-04-08T08:52:53.172Z,55.77
2023-04-08T08:55:41.420Z,55.77
2023-04-08T08:58:13.119Z,55.86
2023-04-08T09:00:42.098Z,55.21
2023-04-08T09:03:21.740Z,54.93
2023-04-08T09:05:58.650Z,54.77
2023-04-08T09:08:37.828Z,54.68
2023-04-08T09:11:18.645Z,53.80
2023-04-08T09:13:46.663Z,53.58
2023-04-08T09:16:19.604Z,53.28
2023-04-08T09:18:48.415Z,52.88
2023-04-08T09:21:18.542Z,52.53
2023-04-08T09:23:49.397Z,52.33
2023-04-08T09:26:21.902Z,52.41
2023-04-08T09:29:25.116Z,52.37
2023-04-08T09:31:58.065Z,51.79
2023-04-08T09:34:31.665Z,51.54
2023-04-08T09:36:58.055Z,51.43
2023-04-08T09:39:24.795Z,50.91
2023-04-08T09:41:57.881Z,50.62
2023-04-08T09:44:31.306Z,50.66
2023-04-08T09:47:21.520Z,50.86
2023-04-08T09:50:01.330Z,50.50
2023-04-08T09:52:46.740Z,50.13
2023-04-08T09:55:17.052Z,49.31
2023-04-08T09:57:52.620Z,49.22
2023-04-08T10:00:25.447Z,48.80
2023-04-08T10:03:12.728Z,48.22
2023-04-08T10:05:44.665Z,47.95
2023-04-08T10:08:12.983Z,47.47
2023-04-08T10:10:42.421Z,47.61
2023-04-08T10:13:14.021Z,47.75
2023-04-08T10:15:43.675Z,47.10
2023-04-08T10:18:33.284Z,46.51
2023-04-08T10:21:00.246Z,46.45
2023-04-08T10:23:57.051Z,46.33
2023-04-08T10:26:35.436Z,46.42
2023-04-08T10:29:18.484Z,46.37
2023-04-08T10:31:52.702Z,45.47
2023-04-08T10:34:27.346Z,45.86
2023-04-08T10:36:58.377Z,45.54
2023-04-08T10:39:27.069Z,45.31
2023-04-08T10:41:54.213Z,44.52
2023-04-08T10:44:32.115Z,44.06
2023-04-08T10:46:58.829Z,44.26
2023-04-08T10:49:34.234Z,44.18
2023-04-08T10:52:00.826Z,43.88
2023-04-08T10:54:29.041Z,43.66
2023-04-08T10:56:56.053Z,43.78
2023-04-08T10:59:32.492Z,43.87
2023-04-08T11:02:02.059Z,43.71
2023-04-08T11:04:33.220Z,43.93
2023-04-08T11:06:59.822Z,43.58
2023-04-08T11:09:27.192Z,43.76
2023-04-08T11:11:54.054Z,43.19
2023-04-08T11:17:05.220Z,42.70
2023-04-08T11:19:33.578Z,41.96
2023-04-08T11:22:02.094Z,40.72
2023-04-08T11:24:29.146Z,39.37
2023-04-08T11:26:59.486Z,41.59
2023-04-08T11:29:26.076Z,41.68
2023-04-08T11:31:53.469Z,41.23
2023-04-08T11:34:28.227Z,40.97
2023-04-08T11:36:58.097Z,40.61
2023-04-08T11:39:26.178Z,40.55
2023-04-08T11:41:54.955Z,40.45
2023-04-08T11:44:31.798Z,40.01
2023-04-08T11:47:02.373Z,39.93
2023-04-08T11:49:45.004Z,39.54
2023-04-08T11:52:14.307Z,39.39
2023-04-08T11:54:43.745Z,40.04
2023-04-08T11:57:11.488Z,39.04
2023-04-08T11:59:38.165Z,39.49
2023-04-08T12:02:05.643Z,39.55
2023-04-08T12:04:33.585Z,39.13
2023-04-08T12:07:00.440Z,39.37
2023-04-08T12:09:27.950Z,38.44
2023-04-08T12:11:56.425Z,38.88
2023-04-08T12:14:26.240Z,38.63
2023-04-08T12:16:55.177Z,38.36
2023-04-08T12:19:22.074Z,38.61
2023-04-08T12:21:49.520Z,37.64
2023-04-08T12:24:16.009Z,37.52
2023-04-08T12:26:42.409Z,37.44
2023-04-08T12:29:11.705Z,37.31
2023-04-08T12:31:40.406Z,36.86
2023-04-08T12:34:08.032Z,36.40
2023-04-08T12:36:35.518Z,35.75
2023-04-08T12:39:02.500Z,35.98
2023-04-08T12:41:31.454Z,35.81
2023-04-08T12:43:57.816Z,35.95
2023-04-08T12:46:24.586Z,35.23
2023-04-08T12:49:02.922Z,35.20
2023-04-08T12:51:30.425Z,35.38
2023-04-08T12:53:57.086Z,35.11
2023-04-08T12:56:23.644Z,34.69
2023-04-08T12:58:53.052Z,35.12
2023-04-08T13:01:20.425Z,34.11
2023-04-08T13:03:48.797Z,34.46
2023-04-08T13:06:16.178Z,34.47
2023-04-08T13:08:43.555Z,33.19
2023-04-08T13:11:10.393Z,32.68
2023-04-08T13:13:37.139Z,33.54
2023-04-08T13:16:04.569Z,33.96
2023-04-08T13:18:31.662Z,34.19
2023-04-08T13:20:58.761Z,33.92
2023-04-08T13:23:25.771Z,33.89
2023-04-08T13:25:52.171Z,31.86
2023-04-08T13:28:21.643Z,31.09
2023-04-08T13:30:48.298Z,32.64
2023-04-08T13:33:15.052Z,31.43
2023-04-08T13:35:44.706Z,33.14
2023-04-08T13:38:13.159Z,31.37
2023-04-08T13:40:40.059Z,33.20
2023-04-08T13:43:09.637Z,31.86
2023-04-08T13:45:36.401Z,31.26
2023-04-08T13:48:04.255Z,32.61
2023-04-08T13:50:31.402Z,31.29
2023-04-08T13:52:58.228Z,31.78
2023-04-08T13:55:26.038Z,29.99
2023-04-08T13:57:52.596Z,31.98
2023-04-08T14:00:19.090Z,32.14
2023-04-08T14:02:46.034Z,31.44
2023-04-08T14:05:12.574Z,30.43
2023-04-08T14:07:39.103Z,30.00
2023-04-08T14:10:07.127Z,30.91
2023-04-08T14:12:35.594Z,30.68
2023-04-08T14:15:03.569Z,31.33
2023-04-08T14:17:30.314Z,31.11
2023-04-08T14:19:58.976Z,31.96
2023-04-08T14:22:25.969Z,32.10
2023-04-08T14:24:52.597Z,32.04
2023-04-08T14:27:19.539Z,31.87
2023-04-08T14:29:49.205Z,32.73
2023-04-08T14:32:17.822Z,32.24
2023-04-08T14:34:44.426Z,32.20
2023-04-08T14:37:11.903Z,32.67
2023-04-08T14:39:38.708Z,32.03
2023-04-08T14:42:05.386Z,31.51
2023-04-08T14:44:33.687Z,32.70
2023-04-08T14:47:00.817Z,32.73
2023-04-08T14:49:27.387Z,32.29
2023-04-08T14:51:53.952Z,31.09
2023-04-08T14:54:20.425Z,32.87
2023-04-08T14:56:47.212Z,32.75
2023-04-08T14:59:14.062Z,33.30
2023-04-08T15:01:41.948Z,33.32
2023-04-08T15:04:08.675Z,33.14
2023-04-08T15:06:38.475Z,33.33
2023-04-08T15:09:06.948Z,32.96
2023-04-08T15:11:33.963Z,33.18
2023-04-08T15:14:01.109Z,33.10
2023-04-08T15:16:28.501Z,33.23
2023-04-08T15:18:59.044Z,33.36
2023-04-08T15:21:26.973Z,33.44
2023-04-08T15:23:53.773Z,33.09
2023-04-08T15:26:21.554Z,32.99
2023-04-08T15:28:49.432Z,33.07
2023-04-08T15:31:16.965Z,32.87
2023-04-08T15:33:45.599Z,32.17
2023-04-08T15:36:18.926Z,33.12
2023-04-08T15:38:47.063Z,31.99
2023-04-08T15:41:20.767Z,32.71
2023-04-08T15:43:49.553Z,29.35
2023-04-08T15:46:22.947Z,31.73
2023-04-08T15:48:50.037Z,30.23
2023-04-08T15:51:17.996Z,28.82
2023-04-08T15:53:45.192Z,30.30
2023-04-08T15:56:16.603Z,31.18
2023-04-08T15:58:45.960Z,30.58
2023-04-08T16:01:13.743Z,31.68
2023-04-08T16:03:40.988Z,31.67
2023-04-08T16:06:12.150Z,31.96
2023-04-08T16:08:39.999Z,30.71
2023-04-08T16:11:10.301Z,31.92
2023-04-08T16:13:38.597Z,32.78
2023-04-08T16:16:08.066Z,33.16
2023-04-08T16:18:35.043Z,33.72
2023-04-08T16:21:05.529Z,33.38
2023-04-08T16:23:37.115Z,32.19
2023-04-08T16:26:07.341Z,32.01
2023-04-08T16:28:41.119Z,31.27
2023-04-08T16:31:12.026Z,31.16
2023-04-08T16:33:42.209Z,31.68
2023-04-08T16:36:12.670Z,32.27
2023-04-08T16:38:39.130Z,32.62
2023-04-08T16:41:09.378Z,33.23
2023-04-08T16:43:38.373Z,33.57
2023-04-08T16:46:18.090Z,33.06
2023-04-08T16:48:44.929Z,33.97
2023-04-08T16:51:11.416Z,34.07
2023-04-08T16:53:38.299Z,34.66
2023-04-08T16:56:16.922Z,35.18
2023-04-08T16:58:45.091Z,35.09
2023-04-08T17:01:15.655Z,35.32
2023-04-08T17:03:42.516Z,35.88
2023-04-08T17:06:13.120Z,36.49
2023-04-08T17:08:42.934Z,37.19
2023-04-08T17:11:14.522Z,37.52
2023-04-08T17:13:44.924Z,38.53
2023-04-08T17:16:16.101Z,38.11
2023-04-08T17:18:46.523Z,38.17
2023-04-08T17:21:13.859Z,38.48
2023-04-08T17:23:41.565Z,38.93
2023-04-08T17:26:12.277Z,39.18
2023-04-08T17:28:39.206Z,39.26
2023-04-08T17:31:05.700Z,39.61
2023-04-08T17:33:34.047Z,40.19
2023-04-08T17:36:01.786Z,40.92
2023-04-08T17:38:33.726Z,41.53
2023-04-08T17:41:01.478Z,41.89
2023-04-08T17:43:27.935Z,42.47
2023-04-08T17:46:03.729Z,42.78
2023-04-08T17:48:30.546Z,43.11
2023-04-08T17:51:05.744Z,43.61
2023-04-08T17:53:36.356Z,44.04
2023-04-08T17:56:04.797Z,43.77
2023-04-08T17:58:31.547Z,43.96
2023-04-08T18:01:00.062Z,44.53
2023-04-08T18:03:30.380Z,44.78
2023-04-08T18:05:57.286Z,45.27
2023-04-08T18:08:23.800Z,45.87
2023-04-08T18:10:51.360Z,46.14
2023-04-08T18:13:21.925Z,45.98
2023-04-08T18:15:48.577Z,46.24
2023-04-08T18:18:18.881Z,46.86
2023-04-08T18:20:46.825Z,47.44
2023-04-08T18:23:14.854Z,47.15
2023-04-08T18:25:49.544Z,47.42
2023-04-08T18:28:21.785Z,47.61
2023-04-08T18:30:53.055Z,48.05
2023-04-08T18:33:19.910Z,48.49
2023-04-08T18:35:48.101Z,48.93
2023-04-08T18:38:16.477Z,49.04
2023-04-08T18:40:44.953Z,50.02
2023-04-08T18:43:13.792Z,50.76
2023-04-08T18:45:41.399Z,51.37
2023-04-08T18:48:10.259Z,51.07
2023-04-08T18:50:36.654Z,50.77
2023-04-08T18:53:04.232Z,51.32
2023-04-08T18:55:35.742Z,52.08
2023-04-08T18:58:03.418Z,52.67
2023-04-08T19:00:30.716Z,52.96
2023-04-08T19:02:59.895Z,52.87
2023-04-08T19:05:26.833Z,52.76
2023-04-08T19:07:55.555Z,52.29
2023-04-08T19:10:23.888Z,52.57
2023-04-08T19:12:50.859Z,52.33
2023-04-08T19:15:17.309Z,52.82
2023-04-08T19:17:46.274Z,52.54
2023-04-08T19:20:13.166Z,53.81
2023-04-08T19:22:40.454Z,54.48
2023-04-08T19:25:09.212Z,54.68
2023-04-08T19:27:37.261Z,54.77
2023-04-08T19:30:06.360Z,54.67
2023-04-08T19:32:35.679Z,54.46
2023-04-08T19:35:03.213Z,54.88
2023-04-08T19:37:32.429Z,55.01
2023-04-08T19:40:00.619Z,54.59
2023-04-08T19:42:29.062Z,54.35
2023-04-08T19:44:57.149Z,54.23
2023-04-08T19:47:26.963Z,54.79
2023-04-08T19:49:55.260Z,54.74
2023-04-08T19:52:24.648Z,54.50
2023-04-08T19:54:51.554Z,54.65
2023-04-08T19:57:18.703Z,55.38
2023-04-08T19:59:47.399Z,56.14
2023-04-08T20:02:21.626Z,56.78
2023-04-08T20:04:52.587Z,56.04
2023-04-08T20:07:20.241Z,55.43
2023-04-08T20:09:47.054Z,56.96
2023-04-08T20:12:13.660Z,56.96
2023-04-08T20:14:44.824Z,57.37
2023-04-08T20:17:11.985Z,57.42
2023-04-08T20:19:40.879Z,57.75
2023-04-08T20:22:07.592Z,58.24
2023-04-08T20:24:36.842Z,57.13
2023-04-08T20:27:03.580Z,58.23
2023-04-08T20:29:30.469Z,57.46
2023-04-08T20:32:01.332Z,58.70
2023-04-08T20:34:27.904Z,59.48
2023-04-08T20:36:57.391Z,59.50
2023-04-08T20:39:31.007Z,59.45
2023-04-08T20:41:59.777Z,59.27
2023-04-08T20:44:27.621Z,59.18
2023-04-08T20:46:54.946Z,59.04
2023-04-08T20:49:24.263Z,59.54
2023-04-08T20:51:50.866Z,59.57
2023-04-08T20:54:17.927Z,59.20
2023-04-08T20:56:46.706Z,58.58
2023-04-08T20:59:13.652Z,58.30
2023-04-08T21:01:40.907Z,59.01
2023-04-08T21:04:08.302Z,58.91
2023-04-08T21:06:36.945Z,58.83
2023-04-08T21:09:05.340Z,58.91
2023-04-08T21:11:33.696Z,58.21
2023-04-08T21:14:02.073Z,58.19
2023-04-08T21:16:30.218Z,58.11
2023-04-08T21:19:01.545Z,58.01
2023-04-08T21:21:28.214Z,58.47
2023-04-08T21:23:54.745Z,59.01
2023-04-08T21:26:22.503Z,60.91
2023-04-08T21:28:49.721Z,61.23
2023-04-08T21:31:16.720Z,61.37
2023-04-08T21:33:46.273Z,61.43
2023-04-08T21:36:13.239Z,61.07
2023-04-08T21:38:42.528Z,59.93
2023-04-08T21:41:10.634Z,59.95
2023-04-08T21:43:40.066Z,59.99
2023-04-08T21:46:06.888Z,59.77
2023-04-08T21:48:33.516Z,59.68
2023-04-08T21:51:00.579Z,59.47
2023-04-08T21:53:28.195Z,59.15
2023-04-08T21:55:56.374Z,59.04
2023-04-08T21:58:23.530Z,59.66
2023-04-08T22:00:50.363Z,59.88
2023-04-08T22:03:16.923Z,60.81
2023-04-08T22:05:46.084Z,61.21
2023-04-08T22:08:14.201Z,60.74
2023-04-08T22:10:41.526Z,60.48
2023-04-08T22:13:09.483Z,60.19
2023-04-08T22:15:37.944Z,60.31
2023-04-08T22:18:05.786Z,60.03
2023-04-08T22:20:32.961Z,60.55
2023-04-08T22:22:59.368Z,60.77
2023-04-08T22:25:27.681Z,60.90
2023-04-08T22:27:54.264Z,60.85
2023-04-08T22:30:21.438Z,60.07
2023-04-08T22:32:48.343Z,59.93
2023-04-08T22:35:15.834Z,59.90
2023-04-08T22:37:43.047Z,60.09
2023-04-08T22:40:09.828Z,60.00
2023-04-08T22:42:36.247Z,60.45
2023-04-08T22:45:04.353Z,60.52
2023-04-08T22:47:30.880Z,60.45
2023-04-08T22:49:57.593Z,60.33
2023-04-08T22:52:25.958Z,60.48
2023-04-08T22:54:52.393Z,60.32
2023-04-08T22:57:19.685Z,60.65
2023-04-08T22:59:46.745Z,61.24
2023-04-08T23:02:15.789Z,60.22
2023-04-08T23:04:42.787Z,60.38
2023-04-08T23:07:10.337Z,60.88
2023-04-08T23:09:36.842Z,60.97
2023-04-08T23:12:05.885Z,61.62
2023-04-08T23:14:32.326Z,61.24
2023-04-08T23:17:00.497Z,60.52
2023-04-08T23:19:28.830Z,61.26
2023-04-08T23:21:55.387Z,60.58
2023-04-08T23:24:22.117Z,60.52
2023-04-08T23:26:49.927Z,61.48
2023-04-08T23:29:16.912Z,61.57
2023-04-08T23:31:46.191Z,61.80
2023-04-08T23:34:12.935Z,61.70
2023-04-08T23:36:39.731Z,61.21
2023-04-08T23:39:07.537Z,61.72
2023-04-08T23:41:34.379Z,61.62
2023-04-08T23:44:01.438Z,61.78
2023-04-08T23:46:28.488Z,66.35
2023-04-08T23:48:55.500Z,74.74
2023-04-08T23:51:22.663Z,69.99
2023-04-08T23:53:51.581Z,56.71
2023-04-08T23:56:18.055Z,49.35
2023-04-08T23:58:44.945Z,48.50
